Terminal Aerodrome Forecast
Issued by NWS

Home | Current Version | Previous Version | Text Only | Print | Product List | Glossary On
Versions: 1 2 3 4 5 6 7 8 9 10 11 12 13 14 15
000
FTUS42 KMHX 120100 AAA
TAFOAJ
TAF AMD
KOAJ 120106Z 1201/1224 00000KT P6SM BKN020 BKN030
     FM120500 29003KT 4SM BR OVC005
     FM120900 02003KT 2SM BR OVC005
     FM121300 03005KT P6SM BKN030
     FM121600 08007KT P6SM SCT040
      AMD LTD TO CLD VIS AND WIND=

USA.gov is the U.S. government's official web portal to all federal, state and local government web resources and services.